This is the latest recevied weather packets stored in our database for station/object VA2IEI-13. If no packets are shown the sender has not sent any weather packets the latest 10 day(s).
| Time | Temp. | Humidity | Pressure | Rain* | Wind** | Luminosity | Snow |
|---|---|---|---|---|---|---|---|
| 1778047222 | 11.67° C | 81% | 1009.1 hPa | 0 mm | - | - | - |
| 1778044870 | 12.22° C | 82% | 1008.7 hPa | 0 mm | - | - | - |
| 1778040638 | 12.78° C | 85% | 1007.9 hPa | 0 mm | - | - | - |
| 1778040056 | 12.78° C | 86% | 1007.6 hPa | 0 mm | - | - | - |
| 1778039457 | 12.78° C | 86% | 1007.8 hPa | 0 mm | - | - | - |
| 1778037068 | 12.78° C | 90% | 1007.1 hPa | 0 mm | - | - | - |
| 1778035860 | 12.78° C | 92% | 1006.8 hPa | 0 mm | - | - | - |
| 1778032831 | 13.33° C | 93% | 1006.3 hPa | 1.27 mm | - | - | - |
| 1778032228 | 13.33° C | 92% | 1006.1 hPa | 2.29 mm | - | - | - |
| 1778027445 | 14.44° C | 90% | 1005 hPa | 1.02 mm | - | - | - |
| 1778003456 | 14.44° C | 92% | 1002.2 hPa | 1.78 mm | - | - | - |
| 1778000422 | 15.56° C | 85% | 1002.1 hPa | 0.76 mm | - | - | - |
| 1777999292 | 15.56° C | 83% | 1002.4 hPa | 0.76 mm | - | - | - |
| 1777996248 | 17.78° C | 76% | 1003.3 hPa | 0 mm | - | - | - |
| 1777991462 | 17.78° C | 65% | 1003.3 hPa | 0 mm | - | - | - |
| 1777990878 | 17.78° C | 65% | 1003.5 hPa | 0 mm | - | - | - |
| 1777984874 | 12.22° C | 76% | 1003.9 hPa | 0 mm | - | - | - |
| 1777984268 | 12.22° C | 77% | 1004 hPa | 0 mm | - | - | - |
| 1777982456 | 10.56° C | 80% | 1004.3 hPa | 0 mm | - | - | - |
| 1777977021 | 7.22° C | 89% | 1004.2 hPa | 0 mm | - | - | - |
| 1777970433 | 6.11° C | 90% | 1004.8 hPa | 0 mm | - | - | - |
| 1777968621 | 6.11° C | 89% | 1005 hPa | 0 mm | - | - | - |
| 1777966237 | 6.11° C | 88% | 1005.3 hPa | 0 mm | - | - | - |
| 1777965681 | 6.11° C | 88% | 1005.2 hPa | 0 mm | - | - | - |
| 1777965077 | 6.11° C | 87% | 1005.3 hPa | 0 mm | - | - | - |
* Rain latest hour (hover to see other rain measurements)
** Current wind speed in m/s (hover to see current wind gust speed)